Time,TemperatureF,DewpointF,PressureIn,WindDirection,WindDirectionDegrees,WindSpeedMPH,WindSpeedGustMPH,Humidity,HourlyPrecipIn,Conditions,Clouds,dailyrainin,SoftwareType,DateUTC
2013-06-28 00:02:00,63.0,61.0,29.53,NW,313,0.0,-999.0,93,-99.99,,,-99.99,,2013-06-28 04:02:00,
2013-06-28 00:22:00,63.0,61.0,29.53,NW,313,0.0,-999.0,93,-99.99,,,-99.99,,2013-06-28 04:22:00,
2013-06-28 00:33:00,64.0,62.0,29.53,NW,313,0.0,-999.0,93,-99.99,,,-99.99,,2013-06-28 04:33:00,
2013-06-28 00:43:00,64.0,62.0,29.53,NW,313,0.0,-999.0,93,-99.99,,,-99.99,,2013-06-28 04:43:00,
2013-06-28 00:53:00,64.0,62.0,29.53,NW,313,0.0,-999.0,93,-99.99,,,-99.99,,2013-06-28 04:53:00,
2013-06-28 01:01:00,63.0,61.0,29.52,NW,313,0.0,-999.0,93,-99.99,,,-99.99,,2013-06-28 05:01:00,
2013-06-28 01:11:00,63.0,61.0,29.52,NW,313,0.0,-999.0,93,-99.99,,,-99.99,,2013-06-28 05:11:00,
2013-06-28 01:22:00,63.0,61.0,29.51,NW,313,0.0,-999.0,93,-99.99,,,-99.99,,2013-06-28 05:22:00,
2013-06-28 01:53:00,63.0,61.0,29.50,NW,313,0.0,-999.0,93,-99.99,,,-99.99,,2013-06-28 05:53:00,
2013-06-28 02:02:00,63.0,61.0,29.49,NW,313,0.0,-999.0,93,-99.99,,,-99.99,,2013-06-28 06:02:00,
2013-06-28 02:12:00,63.0,61.0,29.49,NW,313,0.0,-999.0,93,-99.99,,,-99.99,,2013-06-28 06:12:00,
2013-06-28 02:22:00,63.0,61.0,29.49,NW,313,0.0,-999.0,93,-99.99,,,-99.99,,2013-06-28 06:22:00,
2013-06-28 03:01:00,63.0,61.0,29.49,NW,313,0.0,-999.0,94,-99.99,,,-99.99,,2013-06-28 07:01:00,
2013-06-28 03:11:00,63.0,61.0,29.49,NW,313,0.0,-999.0,94,-99.99,,,-99.99,,2013-06-28 07:11:00,
2013-06-28 03:22:00,63.0,61.0,29.49,NW,313,0.0,-999.0,94,-99.99,,,-99.99,,2013-06-28 07:22:00,
2013-06-28 03:33:00,63.0,61.0,29.49,NW,313,0.0,-999.0,94,-99.99,,,-99.99,,2013-06-28 07:33:00,
2013-06-28 03:43:00,63.0,61.0,29.49,NW,313,0.0,-999.0,94,-99.99,,,-99.99,,2013-06-28 07:43:00,
2013-06-28 03:52:00,63.0,61.0,29.49,NW,313,0.0,-999.0,94,-99.99,,,-99.99,,2013-06-28 07:52:00,
2013-06-28 04:02:00,63.0,61.0,29.49,NW,313,0.0,-999.0,94,-99.99,,,-99.99,,2013-06-28 08:02:00,
2013-06-28 04:11:00,63.0,61.0,29.49,NW,313,0.0,-999.0,94,-99.99,,,-99.99,,2013-06-28 08:11:00,
2013-06-28 04:22:00,63.0,61.0,29.49,NW,313,0.0,-999.0,94,-99.99,,,-99.99,,2013-06-28 08:22:00,
2013-06-28 04:33:00,63.0,61.0,29.48,NW,313,0.0,-999.0,94,-99.99,,,-99.99,,2013-06-28 08:33:00,
2013-06-28 05:02:00,63.0,61.0,29.48,NW,313,0.0,-999.0,94,-99.99,,,-99.99,,2013-06-28 09:02:00,
2013-06-28 05:22:00,63.0,61.0,29.47,NW,313,0.0,-999.0,94,-99.99,,,-99.99,,2013-06-28 09:22:00,
2013-06-28 05:33:00,63.0,61.0,29.47,NW,313,0.0,-999.0,94,-99.99,,,-99.99,,2013-06-28 09:33:00,
2013-06-28 05:52:00,63.0,61.0,29.47,NW,313,0.0,-999.0,94,-99.99,,,-99.99,,2013-06-28 09:52:00,
2013-06-28 06:12:00,63.0,61.0,29.47,NW,313,0.0,-999.0,94,-99.99,,,-99.99,,2013-06-28 10:12:00,
2013-06-28 06:22:00,63.0,61.0,29.47,NW,313,0.0,-999.0,94,-99.99,,,-99.99,,2013-06-28 10:22:00,
2013-06-28 06:33:00,63.0,61.0,29.47,NW,313,0.0,-999.0,94,-99.99,,,-99.99,,2013-06-28 10:33:00,
2013-06-28 06:42:00,63.0,61.0,29.46,NW,313,0.0,-999.0,94,-99.99,,,-99.99,,2013-06-28 10:42:00,
2013-06-28 06:52:00,63.0,61.0,29.46,NW,313,0.0,-999.0,94,-99.99,,,-99.99,,2013-06-28 10:52:00,
2013-06-28 07:11:00,63.0,61.0,29.45,NW,313,0.0,-999.0,94,-99.99,,,-99.99,,2013-06-28 11:11:00,
2013-06-28 07:22:00,64.0,62.0,29.46,NW,313,0.0,-999.0,94,-99.99,,,-99.99,,2013-06-28 11:22:00,
2013-06-28 07:43:00,64.0,62.0,29.45,NW,313,0.0,-999.0,94,-99.99,,,-99.99,,2013-06-28 11:43:00,
2013-06-28 07:53:00,64.0,62.0,29.45,NW,313,0.0,-999.0,94,-99.99,,,-99.99,,2013-06-28 11:53:00,
2013-06-28 08:22:00,65.0,64.0,29.45,NW,313,0.0,-999.0,95,-99.99,,,-99.99,,2013-06-28 12:22:00,
2013-06-28 08:34:00,65.0,63.0,29.44,NW,313,0.0,-999.0,94,-99.99,,,-99.99,,2013-06-28 12:34:00,
2013-06-28 08:43:00,65.0,63.0,29.44,NW,313,0.0,-999.0,94,-99.99,,,-99.99,,2013-06-28 12:43:00,
2013-06-28 08:52:00,65.0,63.0,29.44,NW,313,0.0,-999.0,94,-99.99,,,-99.99,,2013-06-28 12:52:00,
2013-06-28 09:01:00,65.0,63.0,29.44,NW,313,0.0,-999.0,94,-99.99,,,-99.99,,2013-06-28 13:01:00,
2013-06-28 09:11:00,65.0,63.0,29.43,NW,313,0.0,-999.0,94,-99.99,,,-99.99,,2013-06-28 13:11:00,
2013-06-28 09:23:00,66.0,65.0,29.43,NW,313,0.0,-999.0,95,-99.99,,,-99.99,,2013-06-28 13:23:00,
2013-06-28 09:43:00,67.0,66.0,29.43,SW,229,0.0,-999.0,95,-99.99,,,-99.99,,2013-06-28 13:43:00,
2013-06-28 09:53:00,67.0,65.0,29.42,SW,232,0.0,-999.0,94,-99.99,,,-99.99,,2013-06-28 13:53:00,
2013-06-28 10:02:00,68.0,66.0,29.42,SW,224,1.0,-999.0,94,-99.99,,,-99.99,,2013-06-28 14:02:00,
2013-06-28 10:33:00,68.0,66.0,29.41,SW,220,1.0,-999.0,93,-99.99,,,-99.99,,2013-06-28 14:33:00,
2013-06-28 10:44:00,70.0,68.0,29.41,WSW,237,2.0,-999.0,92,-99.99,,,-99.99,,2013-06-28 14:44:00,
2013-06-28 10:53:00,70.0,68.0,29.41,WSW,237,2.0,-999.0,92,-99.99,,,-99.99,,2013-06-28 14:53:00,
2013-06-28 11:02:00,69.0,66.0,29.40,South,185,3.0,-999.0,89,-99.99,,,-99.99,,2013-06-28 15:02:00,
2013-06-28 11:24:00,70.0,66.0,29.40,SW,219,3.0,-999.0,86,-99.99,,,-99.99,,2013-06-28 15:24:00,
2013-06-28 11:34:00,71.0,65.0,29.39,SW,234,2.0,-999.0,81,-99.99,,,-99.99,,2013-06-28 15:34:00,
2013-06-28 11:52:00,72.0,65.0,29.39,West,268,5.0,-999.0,79,-99.99,,,-99.99,,2013-06-28 15:52:00,
2013-06-28 12:02:00,73.0,65.0,29.39,West,261,3.0,-999.0,76,-99.99,,,-99.99,,2013-06-28 16:02:00,
2013-06-28 12:25:00,74.0,65.0,29.39,NW,315,2.0,-999.0,74,-99.99,,,-99.99,,2013-06-28 16:25:00,
2013-06-28 12:33:00,70.0,63.0,29.41,NNW,328,4.0,-999.0,78,-99.99,,,-99.99,,2013-06-28 16:33:00,
2013-06-28 12:44:00,68.0,63.0,29.43,NNW,332,0.0,-999.0,84,-99.99,,,-99.99,,2013-06-28 16:44:00,
2013-06-28 12:53:00,68.0,63.0,29.43,NNW,332,0.0,-999.0,84,-99.99,,,-99.99,,2013-06-28 16:53:00,
2013-06-28 13:11:00,66.0,62.0,29.42,NNW,342,1.0,-999.0,87,-99.99,,,-99.99,,2013-06-28 17:11:00,
2013-06-28 13:22:00,65.0,62.0,29.44,NNW,342,0.0,-999.0,89,-99.99,,,-99.99,,2013-06-28 17:22:00,
2013-06-28 13:44:00,66.0,63.0,29.41,NNW,342,0.0,-999.0,90,-99.99,,,-99.99,,2013-06-28 17:44:00,
2013-06-28 13:52:00,66.0,63.0,29.41,NNW,342,0.0,-999.0,90,-99.99,,,-99.99,,2013-06-28 17:52:00,
2013-06-28 14:02:00,66.0,63.0,29.41,NNW,342,0.0,-999.0,90,-99.99,,,-99.99,,2013-06-28 18:02:00,
2013-06-28 14:11:00,66.0,63.0,29.41,NNW,342,0.0,-999.0,91,-99.99,,,-99.99,,2013-06-28 18:11:00,
2013-06-28 14:22:00,68.0,65.0,29.41,NNW,342,0.0,-999.0,91,-99.99,,,-99.99,,2013-06-28 18:22:00,
2013-06-28 14:43:00,70.0,66.0,29.40,NW,309,0.0,-999.0,87,-99.99,,,-99.99,,2013-06-28 18:43:00,
2013-06-28 14:52:00,70.0,64.0,29.39,NNW,347,1.0,-999.0,82,-99.99,,,-99.99,,2013-06-28 18:52:00,
2013-06-28 15:01:00,71.0,65.0,29.39,NNW,340,1.0,-999.0,81,-99.99,,,-99.99,,2013-06-28 19:01:00,
2013-06-28 15:22:00,72.0,65.0,29.38,NW,323,2.0,-999.0,79,-99.99,,,-99.99,,2013-06-28 19:22:00,
2013-06-28 15:33:00,72.0,65.0,29.38,North,350,3.0,-999.0,78,-99.99,,,-99.99,,2013-06-28 19:33:00,
2013-06-28 15:43:00,73.0,64.0,29.38,NNW,329,4.0,-999.0,74,-99.99,,,-99.99,,2013-06-28 19:43:00,
2013-06-28 15:53:00,73.0,64.0,29.38,NNW,329,4.0,-999.0,74,-99.99,,,-99.99,,2013-06-28 19:53:00,
2013-06-28 16:22:00,75.0,62.0,29.37,WNW,292,3.0,-999.0,63,-99.99,,,-99.99,,2013-06-28 20:22:00,
2013-06-28 16:33:00,73.0,62.0,29.37,NNW,343,3.0,-999.0,69,-99.99,,,-99.99,,2013-06-28 20:33:00,
2013-06-28 16:43:00,76.0,62.0,29.37,North,8,3.0,-999.0,63,-99.99,,,-99.99,,2013-06-28 20:43:00,
2013-06-28 16:52:00,76.0,62.0,29.37,North,8,3.0,-999.0,63,-99.99,,,-99.99,,2013-06-28 20:52:00,
2013-06-28 17:23:00,76.0,62.0,29.37,NNW,330,2.0,-999.0,63,-99.99,,,-99.99,,2013-06-28 21:23:00,
2013-06-28 17:34:00,76.0,61.0,29.38,NNW,333,4.0,-999.0,60,-99.99,,,-99.99,,2013-06-28 21:34:00,
2013-06-28 17:53:00,76.0,62.0,29.38,North,349,4.0,-999.0,62,-99.99,,,-99.99,,2013-06-28 21:53:00,
2013-06-28 18:22:00,74.0,61.0,29.39,NW,309,1.0,-999.0,64,-99.99,,,-99.99,,2013-06-28 22:22:00,
2013-06-28 18:34:00,73.0,61.0,29.38,North,350,2.0,-999.0,66,-99.99,,,-99.99,,2013-06-28 22:34:00,
2013-06-28 18:52:00,72.0,61.0,29.38,North,356,2.0,-999.0,69,-99.99,,,-99.99,,2013-06-28 22:52:00,
2013-06-28 19:02:00,72.0,61.0,29.38,North,356,2.0,-999.0,69,-99.99,,,-99.99,,2013-06-28 23:02:00,
2013-06-28 19:11:00,72.0,61.0,29.38,North,356,2.0,-999.0,69,-99.99,,,-99.99,,2013-06-28 23:11:00,
2013-06-28 19:23:00,71.0,61.0,29.38,NW,320,0.0,-999.0,71,-99.99,,,-99.99,,2013-06-28 23:23:00,
2013-06-28 19:34:00,70.0,61.0,29.38,NNW,344,0.0,-999.0,72,-99.99,,,-99.99,,2013-06-28 23:34:00,
2013-06-28 19:43:00,70.0,61.0,29.38,NW,325,1.0,-999.0,73,-99.99,,,-99.99,,2013-06-28 23:43:00,
2013-06-28 19:53:00,70.0,61.0,29.38,NW,325,1.0,-999.0,73,-99.99,,,-99.99,,2013-06-28 23:53:00,
2013-06-28 20:02:00,69.0,60.0,29.39,NW,326,1.0,-999.0,73,-99.99,,,-99.99,,2013-06-29 00:02:00,
2013-06-28 20:11:00,69.0,60.0,29.39,NW,325,2.0,-999.0,74,-99.99,,,-99.99,,2013-06-29 00:11:00,
2013-06-28 20:23:00,69.0,60.0,29.39,NW,325,2.0,-999.0,74,-99.99,,,-99.99,,2013-06-29 00:23:00,
2013-06-28 20:33:00,68.0,61.0,29.39,NW,325,0.0,-999.0,77,-99.99,,,-99.99,,2013-06-29 00:33:00,
2013-06-28 20:42:00,68.0,61.0,29.39,NW,325,0.0,-999.0,77,-99.99,,,-99.99,,2013-06-29 00:42:00,
2013-06-28 20:52:00,68.0,61.0,29.39,NW,325,0.0,-999.0,77,-99.99,,,-99.99,,2013-06-29 00:52:00,
2013-06-28 21:01:00,68.0,61.0,29.39,NW,325,0.0,-999.0,77,-99.99,,,-99.99,,2013-06-29 01:01:00,
2013-06-28 21:11:00,68.0,61.0,29.39,NW,325,0.0,-999.0,77,-99.99,,,-99.99,,2013-06-29 01:11:00,
2013-06-28 22:31:00,63.0,60.0,29.41,NW,325,0.0,-999.0,89,-99.99,,,-99.99,,2013-06-29 02:31:00,
2013-06-28 22:41:00,63.0,60.0,29.41,NW,325,0.0,-999.0,89,-99.99,,,-99.99,,2013-06-29 02:41:00,
2013-06-28 22:51:00,63.0,60.0,29.41,NW,325,0.0,-999.0,89,-99.99,,,-99.99,,2013-06-29 02:51:00,
2013-06-28 23:01:00,63.0,60.0,29.41,NW,325,0.0,-999.0,89,-99.99,,,-99.99,,2013-06-29 03:01:00,
2013-06-28 23:11:00,63.0,60.0,29.41,NW,325,0.0,-999.0,89,-99.99,,,-99.99,,2013-06-29 03:11:00,